sensor_id;sensor_type;location;lat;lon;timestamp;P1;durP1;ratioP1;P2;durP2;ratioP2
6013;SDS011;3035;49.928;8.410;2022-10-26T00:00:01;12.83;;;3.80;;
6013;SDS011;3035;49.928;8.410;2022-10-26T00:02:29;10.57;;;4.10;;
6013;SDS011;3035;49.928;8.410;2022-10-26T00:04:57;6.63;;;4.00;;
6013;SDS011;3035;49.928;8.410;2022-10-26T00:07:27;13.90;;;4.47;;
6013;SDS011;3035;49.928;8.410;2022-10-26T00:09:53;19.13;;;4.20;;
6013;SDS011;3035;49.928;8.410;2022-10-26T00:12:21;8.70;;;3.73;;
6013;SDS011;3035;49.928;8.410;2022-10-26T00:14:49;13.47;;;4.13;;
6013;SDS011;3035;49.928;8.410;2022-10-26T00:17:17;5.73;;;4.13;;
6013;SDS011;3035;49.928;8.410;2022-10-26T00:19:45;13.70;;;4.43;;
6013;SDS011;3035;49.928;8.410;2022-10-26T00:22:13;7.33;;;4.00;;
6013;SDS011;3035;49.928;8.410;2022-10-26T00:24:41;11.00;;;3.40;;
6013;SDS011;3035;49.928;8.410;2022-10-26T00:27:09;7.00;;;4.17;;
6013;SDS011;3035;49.928;8.410;2022-10-26T00:29:37;5.60;;;3.50;;
6013;SDS011;3035;49.928;8.410;2022-10-26T00:32:05;19.73;;;4.10;;
6013;SDS011;3035;49.928;8.410;2022-10-26T00:34:34;6.43;;;3.63;;
6013;SDS011;3035;49.928;8.410;2022-10-26T00:37:02;14.57;;;4.57;;
6013;SDS011;3035;49.928;8.410;2022-10-26T00:39:30;8.90;;;4.20;;
6013;SDS011;3035;49.928;8.410;2022-10-26T00:41:58;9.13;;;3.90;;
6013;SDS011;3035;49.928;8.410;2022-10-26T00:47:05;8.40;;;3.57;;
6013;SDS011;3035;49.928;8.410;2022-10-26T00:49:33;9.00;;;4.07;;
6013;SDS011;3035;49.928;8.410;2022-10-26T00:52:01;10.47;;;3.60;;
6013;SDS011;3035;49.928;8.410;2022-10-26T00:54:29;8.00;;;4.20;;
6013;SDS011;3035;49.928;8.410;2022-10-26T00:56:57;8.63;;;3.67;;
6013;SDS011;3035;49.928;8.410;2022-10-26T00:59:25;14.93;;;3.77;;
6013;SDS011;3035;49.928;8.410;2022-10-26T01:01:53;8.50;;;4.50;;
6013;SDS011;3035;49.928;8.410;2022-10-26T01:04:21;12.03;;;4.53;;
6013;SDS011;3035;49.928;8.410;2022-10-26T01:06:49;13.50;;;4.33;;
6013;SDS011;3035;49.928;8.410;2022-10-26T01:09:17;13.43;;;4.77;;
6013;SDS011;3035;49.928;8.410;2022-10-26T01:11:45;7.70;;;4.10;;
6013;SDS011;3035;49.928;8.410;2022-10-26T01:14:14;11.40;;;4.47;;
6013;SDS011;3035;49.928;8.410;2022-10-26T01:16:46;15.97;;;3.87;;
6013;SDS011;3035;49.928;8.410;2022-10-26T01:19:19;9.13;;;3.97;;
6013;SDS011;3035;49.928;8.410;2022-10-26T01:24:50;16.83;;;4.40;;
6013;SDS011;3035;49.928;8.410;2022-10-26T01:30:10;16.70;;;4.63;;
6013;SDS011;3035;49.928;8.410;2022-10-26T01:32:44;9.30;;;4.20;;
6013;SDS011;3035;49.928;8.410;2022-10-26T01:35:11;8.73;;;4.30;;
6013;SDS011;3035;49.928;8.410;2022-10-26T01:37:45;8.40;;;3.70;;
6013;SDS011;3035;49.928;8.410;2022-10-26T01:40:20;8.13;;;4.33;;
6013;SDS011;3035;49.928;8.410;2022-10-26T01:42:50;15.10;;;4.30;;
6013;SDS011;3035;49.928;8.410;2022-10-26T01:45:16;9.23;;;4.03;;
6013;SDS011;3035;49.928;8.410;2022-10-26T01:47:45;11.83;;;4.30;;
6013;SDS011;3035;49.928;8.410;2022-10-26T01:50:13;7.17;;;3.50;;
6013;SDS011;3035;49.928;8.410;2022-10-26T01:52:42;6.97;;;4.07;;
6013;SDS011;3035;49.928;8.410;2022-10-26T01:57:50;5.70;;;3.83;;
6013;SDS011;3035;49.928;8.410;2022-10-26T02:00:18;9.80;;;3.97;;
6013;SDS011;3035;49.928;8.410;2022-10-26T02:05:28;12.67;;;4.57;;
6013;SDS011;3035;49.928;8.410;2022-10-26T02:07:58;8.97;;;3.67;;
6013;SDS011;3035;49.928;8.410;2022-10-26T02:13:15;11.80;;;4.57;;
6013;SDS011;3035;49.928;8.410;2022-10-26T02:15:47;8.30;;;4.00;;
6013;SDS011;3035;49.928;8.410;2022-10-26T02:21:04;6.30;;;3.70;;
6013;SDS011;3035;49.928;8.410;2022-10-26T02:23:30;22.17;;;4.00;;
6013;SDS011;3035;49.928;8.410;2022-10-26T02:25:58;5.20;;;3.63;;
6013;SDS011;3035;49.928;8.410;2022-10-26T02:28:28;8.10;;;4.30;;
6013;SDS011;3035;49.928;8.410;2022-10-26T02:30:55;7.77;;;4.00;;
6013;SDS011;3035;49.928;8.410;2022-10-26T02:33:22;18.80;;;4.37;;
6013;SDS011;3035;49.928;8.410;2022-10-26T02:35:50;9.63;;;3.80;;
6013;SDS011;3035;49.928;8.410;2022-10-26T02:38:17;10.77;;;4.50;;
6013;SDS011;3035;49.928;8.410;2022-10-26T02:40:47;13.17;;;4.17;;
6013;SDS011;3035;49.928;8.410;2022-10-26T02:43:15;4.43;;;3.33;;
6013;SDS011;3035;49.928;8.410;2022-10-26T02:45:44;5.90;;;4.00;;
6013;SDS011;3035;49.928;8.410;2022-10-26T02:48:11;6.93;;;3.73;;
6013;SDS011;3035;49.928;8.410;2022-10-26T02:53:40;13.57;;;4.60;;
6013;SDS011;3035;49.928;8.410;2022-10-26T02:56:13;6.70;;;4.57;;
6013;SDS011;3035;49.928;8.410;2022-10-26T02:58:40;7.70;;;3.87;;
6013;SDS011;3035;49.928;8.410;2022-10-26T03:01:08;9.43;;;3.80;;
6013;SDS011;3035;49.928;8.410;2022-10-26T03:03:36;9.50;;;3.20;;
6013;SDS011;3035;49.928;8.410;2022-10-26T03:06:03;8.77;;;3.57;;
6013;SDS011;3035;49.928;8.410;2022-10-26T03:08:32;18.17;;;4.43;;
6013;SDS011;3035;49.928;8.410;2022-10-26T03:11:00;7.97;;;3.93;;
6013;SDS011;3035;49.928;8.410;2022-10-26T03:13:28;10.23;;;3.90;;
6013;SDS011;3035;49.928;8.410;2022-10-26T03:15:56;9.90;;;4.23;;
6013;SDS011;3035;49.928;8.410;2022-10-26T03:18:24;9.43;;;4.23;;
6013;SDS011;3035;49.928;8.410;2022-10-26T03:20:51;5.50;;;3.70;;
6013;SDS011;3035;49.928;8.410;2022-10-26T03:23:19;6.50;;;4.03;;
6013;SDS011;3035;49.928;8.410;2022-10-26T03:25:47;8.10;;;3.60;;
6013;SDS011;3035;49.928;8.410;2022-10-26T03:28:15;15.80;;;3.10;;
6013;SDS011;3035;49.928;8.410;2022-10-26T03:30:43;6.33;;;3.53;;
6013;SDS011;3035;49.928;8.410;2022-10-26T03:33:10;11.70;;;3.67;;
6013;SDS011;3035;49.928;8.410;2022-10-26T03:35:38;9.73;;;3.60;;
6013;SDS011;3035;49.928;8.410;2022-10-26T03:38:06;6.57;;;4.00;;
6013;SDS011;3035;49.928;8.410;2022-10-26T03:40:33;19.23;;;4.23;;
6013;SDS011;3035;49.928;8.410;2022-10-26T03:43:02;23.63;;;5.50;;
6013;SDS011;3035;49.928;8.410;2022-10-26T03:45:30;10.57;;;3.80;;
6013;SDS011;3035;49.928;8.410;2022-10-26T03:47:57;13.23;;;4.37;;
6013;SDS011;3035;49.928;8.410;2022-10-26T03:50:25;6.87;;;3.83;;
6013;SDS011;3035;49.928;8.410;2022-10-26T03:52:53;9.13;;;4.00;;
6013;SDS011;3035;49.928;8.410;2022-10-26T03:55:21;8.20;;;3.83;;
6013;SDS011;3035;49.928;8.410;2022-10-26T03:57:49;13.50;;;4.70;;
6013;SDS011;3035;49.928;8.410;2022-10-26T04:00:18;11.87;;;3.63;;
6013;SDS011;3035;49.928;8.410;2022-10-26T04:02:51;12.60;;;4.30;;
6013;SDS011;3035;49.928;8.410;2022-10-26T04:05:13;19.40;;;4.97;;
6013;SDS011;3035;49.928;8.410;2022-10-26T04:07:41;7.40;;;4.00;;
6013;SDS011;3035;49.928;8.410;2022-10-26T04:10:09;10.80;;;3.70;;
6013;SDS011;3035;49.928;8.410;2022-10-26T04:12:37;11.67;;;4.50;;
6013;SDS011;3035;49.928;8.410;2022-10-26T04:15:05;14.30;;;4.00;;
6013;SDS011;3035;49.928;8.410;2022-10-26T04:17:33;15.50;;;4.23;;
6013;SDS011;3035;49.928;8.410;2022-10-26T04:20:00;8.30;;;4.20;;
6013;SDS011;3035;49.928;8.410;2022-10-26T04:22:28;10.63;;;3.73;;
6013;SDS011;3035;49.928;8.410;2022-10-26T04:24:56;16.03;;;4.23;;
6013;SDS011;3035;49.928;8.410;2022-10-26T04:27:24;11.03;;;3.70;;
6013;SDS011;3035;49.928;8.410;2022-10-26T04:29:52;10.90;;;4.13;;
6013;SDS011;3035;49.928;8.410;2022-10-26T04:32:20;12.43;;;3.80;;
6013;SDS011;3035;49.928;8.410;2022-10-26T04:34:48;12.37;;;4.40;;
6013;SDS011;3035;49.928;8.410;2022-10-26T04:37:16;6.13;;;4.23;;
6013;SDS011;3035;49.928;8.410;2022-10-26T04:39:43;16.93;;;3.97;;
6013;SDS011;3035;49.928;8.410;2022-10-26T04:42:11;6.53;;;4.00;;
6013;SDS011;3035;49.928;8.410;2022-10-26T04:44:39;10.83;;;3.43;;
6013;SDS011;3035;49.928;8.410;2022-10-26T04:47:06;8.43;;;5.00;;
6013;SDS011;3035;49.928;8.410;2022-10-26T04:49:34;7.20;;;3.63;;
6013;SDS011;3035;49.928;8.410;2022-10-26T04:52:01;7.60;;;3.67;;
6013;SDS011;3035;49.928;8.410;2022-10-26T04:54:29;6.40;;;3.87;;
6013;SDS011;3035;49.928;8.410;2022-10-26T04:56:56;11.20;;;3.23;;
6013;SDS011;3035;49.928;8.410;2022-10-26T04:59:24;17.47;;;4.00;;
6013;SDS011;3035;49.928;8.410;2022-10-26T05:01:52;5.23;;;3.57;;
6013;SDS011;3035;49.928;8.410;2022-10-26T05:04:20;9.77;;;3.80;;
6013;SDS011;3035;49.928;8.410;2022-10-26T05:06:48;6.50;;;4.20;;
6013;SDS011;3035;49.928;8.410;2022-10-26T05:09:17;6.67;;;3.60;;
6013;SDS011;3035;49.928;8.410;2022-10-26T05:11:44;9.73;;;4.17;;
6013;SDS011;3035;49.928;8.410;2022-10-26T05:14:12;12.90;;;3.53;;
6013;SDS011;3035;49.928;8.410;2022-10-26T05:16:40;10.17;;;3.77;;
6013;SDS011;3035;49.928;8.410;2022-10-26T05:19:08;6.13;;;3.63;;
6013;SDS011;3035;49.928;8.410;2022-10-26T05:21:36;17.67;;;4.10;;
6013;SDS011;3035;49.928;8.410;2022-10-26T05:24:04;5.60;;;4.03;;
6013;SDS011;3035;49.928;8.410;2022-10-26T05:26:32;8.47;;;3.40;;
6013;SDS011;3035;49.928;8.410;2022-10-26T05:29:00;10.93;;;4.17;;
6013;SDS011;3035;49.928;8.410;2022-10-26T05:31:28;9.80;;;4.17;;
6013;SDS011;3035;49.928;8.410;2022-10-26T05:33:56;14.30;;;3.40;;
6013;SDS011;3035;49.928;8.410;2022-10-26T05:36:24;6.97;;;3.60;;
6013;SDS011;3035;49.928;8.410;2022-10-26T05:38:52;10.00;;;4.13;;
6013;SDS011;3035;49.928;8.410;2022-10-26T05:41:21;11.40;;;4.17;;
6013;SDS011;3035;49.928;8.410;2022-10-26T05:43:48;8.50;;;3.77;;
6013;SDS011;3035;49.928;8.410;2022-10-26T05:46:16;11.00;;;4.23;;
6013;SDS011;3035;49.928;8.410;2022-10-26T05:48:44;5.00;;;4.03;;
6013;SDS011;3035;49.928;8.410;2022-10-26T05:51:12;9.40;;;4.17;;
6013;SDS011;3035;49.928;8.410;2022-10-26T05:53:40;10.20;;;4.50;;
6013;SDS011;3035;49.928;8.410;2022-10-26T05:58:54;5.77;;;4.20;;
6013;SDS011;3035;49.928;8.410;2022-10-26T06:01:28;8.60;;;4.73;;
6013;SDS011;3035;49.928;8.410;2022-10-26T06:03:57;6.20;;;3.57;;
6013;SDS011;3035;49.928;8.410;2022-10-26T06:06:28;5.53;;;3.80;;
6013;SDS011;3035;49.928;8.410;2022-10-26T06:08:54;12.03;;;4.13;;
6013;SDS011;3035;49.928;8.410;2022-10-26T06:11:23;11.03;;;3.33;;
6013;SDS011;3035;49.928;8.410;2022-10-26T06:13:50;10.30;;;4.10;;
6013;SDS011;3035;49.928;8.410;2022-10-26T06:16:24;9.40;;;3.60;;
6013;SDS011;3035;49.928;8.410;2022-10-26T06:19:02;7.97;;;3.80;;
6013;SDS011;3035;49.928;8.410;2022-10-26T06:24:14;9.90;;;4.77;;
6013;SDS011;3035;49.928;8.410;2022-10-26T06:26:42;7.77;;;4.13;;
6013;SDS011;3035;49.928;8.410;2022-10-26T06:31:48;14.00;;;4.27;;
6013;SDS011;3035;49.928;8.410;2022-10-26T06:34:19;8.40;;;4.20;;
6013;SDS011;3035;49.928;8.410;2022-10-26T06:36:45;8.20;;;4.43;;
6013;SDS011;3035;49.928;8.410;2022-10-26T06:39:12;7.93;;;4.10;;
6013;SDS011;3035;49.928;8.410;2022-10-26T06:41:39;12.13;;;3.77;;
6013;SDS011;3035;49.928;8.410;2022-10-26T06:44:07;8.30;;;4.20;;
6013;SDS011;3035;49.928;8.410;2022-10-26T06:46:35;18.43;;;4.23;;
6013;SDS011;3035;49.928;8.410;2022-10-26T06:52:07;9.50;;;4.03;;
6013;SDS011;3035;49.928;8.410;2022-10-26T06:54:44;8.63;;;4.10;;
6013;SDS011;3035;49.928;8.410;2022-10-26T06:57:13;10.70;;;4.97;;
6013;SDS011;3035;49.928;8.410;2022-10-26T06:59:44;4.87;;;3.53;;
6013;SDS011;3035;49.928;8.410;2022-10-26T07:02:11;14.43;;;4.10;;
6013;SDS011;3035;49.928;8.410;2022-10-26T07:04:40;3.77;;;3.37;;
6013;SDS011;3035;49.928;8.410;2022-10-26T07:07:08;16.07;;;3.70;;
6013;SDS011;3035;49.928;8.410;2022-10-26T07:09:35;11.70;;;3.73;;
6013;SDS011;3035;49.928;8.410;2022-10-26T07:12:04;10.00;;;4.43;;
6013;SDS011;3035;49.928;8.410;2022-10-26T07:14:32;15.17;;;4.00;;
6013;SDS011;3035;49.928;8.410;2022-10-26T07:16:59;6.47;;;3.30;;
6013;SDS011;3035;49.928;8.410;2022-10-26T07:19:28;6.70;;;4.00;;
6013;SDS011;3035;49.928;8.410;2022-10-26T07:21:55;20.70;;;4.20;;
6013;SDS011;3035;49.928;8.410;2022-10-26T07:24:23;14.17;;;3.80;;
6013;SDS011;3035;49.928;8.410;2022-10-26T07:26:52;9.73;;;4.10;;
6013;SDS011;3035;49.928;8.410;2022-10-26T07:29:19;10.60;;;3.40;;
6013;SDS011;3035;49.928;8.410;2022-10-26T07:31:47;9.77;;;3.90;;
6013;SDS011;3035;49.928;8.410;2022-10-26T07:34:15;10.40;;;3.90;;
6013;SDS011;3035;49.928;8.410;2022-10-26T07:36:43;7.33;;;3.80;;
6013;SDS011;3035;49.928;8.410;2022-10-26T07:39:11;20.63;;;4.53;;
6013;SDS011;3035;49.928;8.410;2022-10-26T07:41:39;19.53;;;3.97;;
6013;SDS011;3035;49.928;8.410;2022-10-26T07:44:07;6.60;;;3.57;;
6013;SDS011;3035;49.928;8.410;2022-10-26T07:46:34;9.80;;;3.70;;
6013;SDS011;3035;49.928;8.410;2022-10-26T07:49:02;9.73;;;4.30;;
6013;SDS011;3035;49.928;8.410;2022-10-26T07:51:30;7.57;;;3.47;;
6013;SDS011;3035;49.928;8.410;2022-10-26T07:53:58;10.93;;;5.47;;
6013;SDS011;3035;49.928;8.410;2022-10-26T07:56:26;14.37;;;4.80;;
6013;SDS011;3035;49.928;8.410;2022-10-26T07:58:54;12.13;;;4.07;;
6013;SDS011;3035;49.928;8.410;2022-10-26T08:01:22;7.97;;;4.00;;
6013;SDS011;3035;49.928;8.410;2022-10-26T08:03:51;14.53;;;4.23;;
6013;SDS011;3035;49.928;8.410;2022-10-26T08:06:20;5.47;;;3.90;;
6013;SDS011;3035;49.928;8.410;2022-10-26T08:08:47;8.27;;;4.00;;
6013;SDS011;3035;49.928;8.410;2022-10-26T08:11:16;7.27;;;3.77;;
6013;SDS011;3035;49.928;8.410;2022-10-26T08:13:44;8.03;;;4.07;;
6013;SDS011;3035;49.928;8.410;2022-10-26T08:16:11;8.73;;;4.50;;
6013;SDS011;3035;49.928;8.410;2022-10-26T08:18:39;13.70;;;4.90;;
6013;SDS011;3035;49.928;8.410;2022-10-26T08:21:09;9.20;;;4.67;;
6013;SDS011;3035;49.928;8.410;2022-10-26T08:23:36;8.10;;;5.20;;
6013;SDS011;3035;49.928;8.410;2022-10-26T08:26:04;8.27;;;4.27;;
6013;SDS011;3035;49.928;8.410;2022-10-26T08:28:32;11.10;;;5.00;;
6013;SDS011;3035;49.928;8.410;2022-10-26T08:30:59;11.67;;;5.00;;
6013;SDS011;3035;49.928;8.410;2022-10-26T08:33:27;22.90;;;4.60;;
6013;SDS011;3035;49.928;8.410;2022-10-26T08:35:57;18.43;;;5.33;;
6013;SDS011;3035;49.928;8.410;2022-10-26T08:38:25;9.77;;;4.50;;
6013;SDS011;3035;49.928;8.410;2022-10-26T08:40:53;10.30;;;4.40;;
6013;SDS011;3035;49.928;8.410;2022-10-26T08:43:22;5.37;;;4.20;;
6013;SDS011;3035;49.928;8.410;2022-10-26T08:45:51;7.00;;;4.27;;
6013;SDS011;3035;49.928;8.410;2022-10-26T08:48:21;8.10;;;4.20;;
6013;SDS011;3035;49.928;8.410;2022-10-26T08:50:49;12.40;;;4.80;;
6013;SDS011;3035;49.928;8.410;2022-10-26T08:53:23;8.70;;;5.13;;
6013;SDS011;3035;49.928;8.410;2022-10-26T08:55:52;9.93;;;4.53;;
6013;SDS011;3035;49.928;8.410;2022-10-26T08:58:20;8.23;;;3.90;;
6013;SDS011;3035;49.928;8.410;2022-10-26T09:00:46;8.83;;;3.80;;
6013;SDS011;3035;49.928;8.410;2022-10-26T09:03:14;5.90;;;4.30;;
6013;SDS011;3035;49.928;8.410;2022-10-26T09:05:45;13.27;;;4.40;;
6013;SDS011;3035;49.928;8.410;2022-10-26T09:08:16;10.00;;;4.90;;
6013;SDS011;3035;49.928;8.410;2022-10-26T09:13:25;9.93;;;4.50;;
6013;SDS011;3035;49.928;8.410;2022-10-26T09:15:53;14.30;;;4.87;;
6013;SDS011;3035;49.928;8.410;2022-10-26T09:18:45;11.77;;;4.80;;
6013;SDS011;3035;49.928;8.410;2022-10-26T09:21:21;13.27;;;4.53;;
6013;SDS011;3035;49.928;8.410;2022-10-26T09:23:56;13.07;;;4.40;;
6013;SDS011;3035;49.928;8.410;2022-10-26T09:26:27;10.57;;;3.90;;
6013;SDS011;3035;49.928;8.410;2022-10-26T09:28:54;12.47;;;4.40;;
6013;SDS011;3035;49.928;8.410;2022-10-26T09:31:21;17.40;;;4.60;;
6013;SDS011;3035;49.928;8.410;2022-10-26T09:33:49;12.73;;;4.43;;
6013;SDS011;3035;49.928;8.410;2022-10-26T09:36:18;9.93;;;4.93;;
6013;SDS011;3035;49.928;8.410;2022-10-26T09:41:28;10.70;;;4.33;;
6013;SDS011;3035;49.928;8.410;2022-10-26T09:44:02;9.17;;;3.87;;
6013;SDS011;3035;49.928;8.410;2022-10-26T09:46:30;6.83;;;3.90;;
6013;SDS011;3035;49.928;8.410;2022-10-26T09:48:57;5.60;;;3.90;;
6013;SDS011;3035;49.928;8.410;2022-10-26T09:51:24;10.80;;;4.63;;
6013;SDS011;3035;49.928;8.410;2022-10-26T09:53:54;12.80;;;3.60;;
6013;SDS011;3035;49.928;8.410;2022-10-26T09:56:20;4.83;;;3.70;;
6013;SDS011;3035;49.928;8.410;2022-10-26T09:58:49;7.23;;;3.70;;
6013;SDS011;3035;49.928;8.410;2022-10-26T10:01:27;11.20;;;4.10;;
6013;SDS011;3035;49.928;8.410;2022-10-26T10:06:34;10.13;;;4.00;;
6013;SDS011;3035;49.928;8.410;2022-10-26T10:09:05;10.70;;;3.73;;
6013;SDS011;3035;49.928;8.410;2022-10-26T10:11:40;10.13;;;3.50;;
6013;SDS011;3035;49.928;8.410;2022-10-26T10:14:08;13.00;;;3.90;;
6013;SDS011;3035;49.928;8.410;2022-10-26T10:16:35;9.13;;;3.60;;
6013;SDS011;3035;49.928;8.410;2022-10-26T10:19:03;10.97;;;3.87;;
6013;SDS011;3035;49.928;8.410;2022-10-26T10:21:38;17.70;;;3.90;;
6013;SDS011;3035;49.928;8.410;2022-10-26T10:26:55;8.60;;;3.40;;
6013;SDS011;3035;49.928;8.410;2022-10-26T10:29:32;7.20;;;4.13;;
6013;SDS011;3035;49.928;8.410;2022-10-26T10:32:00;6.67;;;3.60;;
6013;SDS011;3035;49.928;8.410;2022-10-26T10:34:28;8.23;;;3.47;;
6013;SDS011;3035;49.928;8.410;2022-10-26T10:36:53;6.57;;;3.30;;
6013;SDS011;3035;49.928;8.410;2022-10-26T10:39:36;7.23;;;3.33;;
6013;SDS011;3035;49.928;8.410;2022-10-26T10:42:03;6.77;;;3.03;;
6013;SDS011;3035;49.928;8.410;2022-10-26T10:44:31;12.53;;;3.00;;
6013;SDS011;3035;49.928;8.410;2022-10-26T10:47:00;9.83;;;3.37;;
6013;SDS011;3035;49.928;8.410;2022-10-26T10:49:26;10.20;;;2.80;;
6013;SDS011;3035;49.928;8.410;2022-10-26T10:51:54;9.87;;;4.27;;
6013;SDS011;3035;49.928;8.410;2022-10-26T10:54:30;9.60;;;3.10;;
6013;SDS011;3035;49.928;8.410;2022-10-26T10:57:07;9.57;;;2.90;;
6013;SDS011;3035;49.928;8.410;2022-10-26T11:02:43;6.87;;;2.60;;
6013;SDS011;3035;49.928;8.410;2022-10-26T11:10:46;6.80;;;3.20;;
6013;SDS011;3035;49.928;8.410;2022-10-26T11:13:17;7.77;;;3.10;;
6013;SDS011;3035;49.928;8.410;2022-10-26T11:15:47;7.23;;;3.67;;
6013;SDS011;3035;49.928;8.410;2022-10-26T11:18:16;9.47;;;2.90;;
6013;SDS011;3035;49.928;8.410;2022-10-26T11:20:46;6.20;;;3.60;;
6013;SDS011;3035;49.928;8.410;2022-10-26T11:23:16;5.83;;;3.40;;
6013;SDS011;3035;49.928;8.410;2022-10-26T11:25:48;15.93;;;3.60;;
6013;SDS011;3035;49.928;8.410;2022-10-26T11:28:15;5.70;;;3.37;;
6013;SDS011;3035;49.928;8.410;2022-10-26T11:30:46;9.87;;;3.37;;
6013;SDS011;3035;49.928;8.410;2022-10-26T11:33:17;6.60;;;3.23;;
6013;SDS011;3035;49.928;8.410;2022-10-26T11:35:45;7.10;;;3.30;;
6013;SDS011;3035;49.928;8.410;2022-10-26T11:41:09;9.13;;;3.00;;
6013;SDS011;3035;49.928;8.410;2022-10-26T11:43:37;14.90;;;3.50;;
6013;SDS011;3035;49.928;8.410;2022-10-26T11:46:10;12.63;;;3.50;;
6013;SDS011;3035;49.928;8.410;2022-10-26T11:48:39;10.63;;;3.00;;
6013;SDS011;3035;49.928;8.410;2022-10-26T11:51:04;6.17;;;3.40;;
6013;SDS011;3035;49.928;8.410;2022-10-26T11:53:35;6.40;;;2.80;;
6013;SDS011;3035;49.928;8.410;2022-10-26T11:56:02;6.73;;;2.93;;
6013;SDS011;3035;49.928;8.410;2022-10-26T11:58:30;8.90;;;3.23;;
6013;SDS011;3035;49.928;8.410;2022-10-26T12:01:01;12.50;;;3.53;;
6013;SDS011;3035;49.928;8.410;2022-10-26T12:03:31;8.53;;;3.20;;
6013;SDS011;3035;49.928;8.410;2022-10-26T12:05:58;13.77;;;3.40;;
6013;SDS011;3035;49.928;8.410;2022-10-26T12:08:28;6.67;;;3.07;;
6013;SDS011;3035;49.928;8.410;2022-10-26T12:13:41;5.47;;;3.23;;
6013;SDS011;3035;49.928;8.410;2022-10-26T12:16:15;12.73;;;5.37;;
6013;SDS011;3035;49.928;8.410;2022-10-26T12:18:42;11.33;;;3.47;;
6013;SDS011;3035;49.928;8.410;2022-10-26T12:21:09;9.20;;;3.80;;
6013;SDS011;3035;49.928;8.410;2022-10-26T12:23:38;7.23;;;3.70;;
6013;SDS011;3035;49.928;8.410;2022-10-26T12:31:42;10.30;;;4.73;;
6013;SDS011;3035;49.928;8.410;2022-10-26T12:37:21;9.30;;;3.37;;
6013;SDS011;3035;49.928;8.410;2022-10-26T12:39:38;7.33;;;2.93;;
6013;SDS011;3035;49.928;8.410;2022-10-26T12:42:09;5.40;;;3.00;;
6013;SDS011;3035;49.928;8.410;2022-10-26T12:50:29;5.97;;;2.90;;
6013;SDS011;3035;49.928;8.410;2022-10-26T12:52:58;15.33;;;3.53;;
6013;SDS011;3035;49.928;8.410;2022-10-26T12:55:29;12.00;;;3.40;;
6013;SDS011;3035;49.928;8.410;2022-10-26T13:04:07;9.07;;;3.00;;
6013;SDS011;3035;49.928;8.410;2022-10-26T13:09:29;3.80;;;2.30;;
6013;SDS011;3035;49.928;8.410;2022-10-26T13:11:56;14.63;;;2.70;;
6013;SDS011;3035;49.928;8.410;2022-10-26T13:14:27;4.23;;;2.40;;
6013;SDS011;3035;49.928;8.410;2022-10-26T13:16:54;7.93;;;3.00;;
6013;SDS011;3035;49.928;8.410;2022-10-26T13:19:24;4.73;;;2.53;;
6013;SDS011;3035;49.928;8.410;2022-10-26T13:21:51;8.53;;;2.70;;
6013;SDS011;3035;49.928;8.410;2022-10-26T13:24:20;13.53;;;2.63;;
6013;SDS011;3035;49.928;8.410;2022-10-26T13:32:54;7.97;;;2.83;;
6013;SDS011;3035;49.928;8.410;2022-10-26T13:35:23;7.70;;;2.13;;
6013;SDS011;3035;49.928;8.410;2022-10-26T13:37:53;9.43;;;1.90;;
6013;SDS011;3035;49.928;8.410;2022-10-26T13:40:27;12.97;;;3.07;;
6013;SDS011;3035;49.928;8.410;2022-10-26T13:42:56;2.83;;;1.40;;
6013;SDS011;3035;49.928;8.410;2022-10-26T13:45:25;3.00;;;1.93;;
6013;SDS011;3035;49.928;8.410;2022-10-26T13:47:55;10.33;;;2.40;;
6013;SDS011;3035;49.928;8.410;2022-10-26T13:50:22;11.17;;;2.17;;
6013;SDS011;3035;49.928;8.410;2022-10-26T13:52:50;5.40;;;1.67;;
6013;SDS011;3035;49.928;8.410;2022-10-26T14:00:36;9.30;;;1.90;;
6013;SDS011;3035;49.928;8.410;2022-10-26T14:03:11;4.27;;;2.10;;
6013;SDS011;3035;49.928;8.410;2022-10-26T14:05:40;5.50;;;2.10;;
6013;SDS011;3035;49.928;8.410;2022-10-26T14:08:10;4.23;;;1.97;;
6013;SDS011;3035;49.928;8.410;2022-10-26T14:10:38;11.63;;;2.70;;
6013;SDS011;3035;49.928;8.410;2022-10-26T14:13:07;5.10;;;1.87;;
6013;SDS011;3035;49.928;8.410;2022-10-26T14:15:33;10.20;;;2.40;;
6013;SDS011;3035;49.928;8.410;2022-10-26T14:18:02;3.83;;;2.07;;
6013;SDS011;3035;49.928;8.410;2022-10-26T14:20:29;2.27;;;1.67;;
6013;SDS011;3035;49.928;8.410;2022-10-26T14:22:56;4.93;;;1.80;;
6013;SDS011;3035;49.928;8.410;2022-10-26T14:25:25;5.87;;;2.10;;
6013;SDS011;3035;49.928;8.410;2022-10-26T14:27:52;6.40;;;2.07;;
6013;SDS011;3035;49.928;8.410;2022-10-26T14:30:20;5.27;;;1.80;;
6013;SDS011;3035;49.928;8.410;2022-10-26T14:32:47;3.57;;;1.80;;
6013;SDS011;3035;49.928;8.410;2022-10-26T14:35:15;8.63;;;2.33;;
6013;SDS011;3035;49.928;8.410;2022-10-26T14:37:50;5.40;;;1.97;;
6013;SDS011;3035;49.928;8.410;2022-10-26T14:40:15;8.80;;;1.80;;
6013;SDS011;3035;49.928;8.410;2022-10-26T14:42:43;5.97;;;1.57;;
6013;SDS011;3035;49.928;8.410;2022-10-26T14:47:59;6.40;;;2.00;;
6013;SDS011;3035;49.928;8.410;2022-10-26T14:50:26;3.90;;;1.93;;
6013;SDS011;3035;49.928;8.410;2022-10-26T14:52:55;11.13;;;2.57;;
6013;SDS011;3035;49.928;8.410;2022-10-26T14:55:22;5.17;;;1.80;;
6013;SDS011;3035;49.928;8.410;2022-10-26T14:57:50;6.80;;;1.80;;
6013;SDS011;3035;49.928;8.410;2022-10-26T15:00:18;6.17;;;2.00;;
6013;SDS011;3035;49.928;8.410;2022-10-26T15:02:47;2.90;;;1.90;;
6013;SDS011;3035;49.928;8.410;2022-10-26T15:05:16;6.33;;;1.30;;
6013;SDS011;3035;49.928;8.410;2022-10-26T15:07:42;6.47;;;1.90;;
6013;SDS011;3035;49.928;8.410;2022-10-26T15:12:49;5.97;;;2.37;;
6013;SDS011;3035;49.928;8.410;2022-10-26T15:15:19;3.40;;;1.70;;
6013;SDS011;3035;49.928;8.410;2022-10-26T15:17:48;4.77;;;1.60;;
6013;SDS011;3035;49.928;8.410;2022-10-26T15:20:16;4.90;;;2.20;;
6013;SDS011;3035;49.928;8.410;2022-10-26T15:22:48;5.77;;;1.90;;
6013;SDS011;3035;49.928;8.410;2022-10-26T15:25:16;4.93;;;1.50;;
6013;SDS011;3035;49.928;8.410;2022-10-26T15:27:43;5.63;;;2.20;;
6013;SDS011;3035;49.928;8.410;2022-10-26T15:32:45;2.83;;;1.60;;
6013;SDS011;3035;49.928;8.410;2022-10-26T15:35:14;8.47;;;1.73;;
6013;SDS011;3035;49.928;8.410;2022-10-26T15:37:51;6.80;;;1.60;;
6013;SDS011;3035;49.928;8.410;2022-10-26T15:40:18;5.77;;;1.87;;
6013;SDS011;3035;49.928;8.410;2022-10-26T15:42:47;3.03;;;1.73;;
6013;SDS011;3035;49.928;8.410;2022-10-26T15:45:15;4.47;;;1.73;;
6013;SDS011;3035;49.928;8.410;2022-10-26T15:47:45;4.37;;;1.90;;
6013;SDS011;3035;49.928;8.410;2022-10-26T15:50:13;5.43;;;1.60;;
6013;SDS011;3035;49.928;8.410;2022-10-26T15:52:40;5.73;;;1.63;;
6013;SDS011;3035;49.928;8.410;2022-10-26T15:55:08;4.73;;;2.03;;
6013;SDS011;3035;49.928;8.410;2022-10-26T15:57:36;4.70;;;2.10;;
6013;SDS011;3035;49.928;8.410;2022-10-26T16:00:03;2.33;;;1.67;;
6013;SDS011;3035;49.928;8.410;2022-10-26T16:02:31;6.70;;;2.23;;
6013;SDS011;3035;49.928;8.410;2022-10-26T16:04:58;11.53;;;2.30;;
6013;SDS011;3035;49.928;8.410;2022-10-26T16:07:27;3.80;;;2.40;;
6013;SDS011;3035;49.928;8.410;2022-10-26T16:09:55;10.43;;;2.63;;
6013;SDS011;3035;49.928;8.410;2022-10-26T16:12:23;9.10;;;2.40;;
6013;SDS011;3035;49.928;8.410;2022-10-26T16:14:51;2.93;;;1.93;;
6013;SDS011;3035;49.928;8.410;2022-10-26T16:17:18;3.67;;;2.00;;
6013;SDS011;3035;49.928;8.410;2022-10-26T16:19:46;6.30;;;2.13;;
6013;SDS011;3035;49.928;8.410;2022-10-26T16:22:13;5.27;;;1.60;;
6013;SDS011;3035;49.928;8.410;2022-10-26T16:24:40;3.77;;;1.90;;
6013;SDS011;3035;49.928;8.410;2022-10-26T16:27:08;12.63;;;2.20;;
6013;SDS011;3035;49.928;8.410;2022-10-26T16:29:35;5.43;;;2.73;;
6013;SDS011;3035;49.928;8.410;2022-10-26T16:32:03;3.53;;;2.07;;
6013;SDS011;3035;49.928;8.410;2022-10-26T16:34:30;4.30;;;2.60;;
6013;SDS011;3035;49.928;8.410;2022-10-26T16:36:58;6.23;;;2.63;;
6013;SDS011;3035;49.928;8.410;2022-10-26T16:39:26;5.40;;;2.23;;
6013;SDS011;3035;49.928;8.410;2022-10-26T16:41:54;6.23;;;2.50;;
6013;SDS011;3035;49.928;8.410;2022-10-26T16:44:22;6.67;;;3.00;;
6013;SDS011;3035;49.928;8.410;2022-10-26T16:46:50;8.70;;;2.90;;
6013;SDS011;3035;49.928;8.410;2022-10-26T16:49:18;6.60;;;3.50;;
6013;SDS011;3035;49.928;8.410;2022-10-26T16:51:45;9.03;;;3.23;;
6013;SDS011;3035;49.928;8.410;2022-10-26T16:54:13;6.60;;;2.73;;
6013;SDS011;3035;49.928;8.410;2022-10-26T16:56:41;5.23;;;2.63;;
6013;SDS011;3035;49.928;8.410;2022-10-26T16:59:09;6.20;;;2.17;;